VDSVVDSR

Guest
Details From VDSV - SIHANUKVILLE
To VDSR - Siem Reap
Flight Number -
Tags generated
Created
Modified
Stats Distance 170 nm / 316 km
Max Altitude 15,200 ft / 4,633 m
Waypoints 3
Social Downloads 0
Likes 0
Share VATSIM

Download

Looking for another format? Having issues loading an existing format? Contact us
Advertisement - Login to hide

Notes

Basic altitude profile: - Ascent Rate: 2500ft/min - Ascent Speed: 250kts - Cruise Altitude: 35000ft - Cruise Speed: 420kts - Descent Rate: 1500ft/min - Descent Speed: 250kts Options: - Use NATs: yes - Use PACOTS: yes - Use low airways: yes - Use high airways: yes

Route

VDSV AKNAT VDSR

ID Type Via Altitude Latitude Longitude Leg Dist Tot Dist Heading (true) Name
O VDSV APT - 0 ft / 0 m 10.57917˚ 103.63683˚ - 0 nm - SIHANUKVILLE
AKNAT FIX - 15,200 ft / 4,633 m 12.23333˚ 103.71167˚ 99 nm 99 nm 3° / 3° -
O VDSR APT - 0 ft / 0 m 13.41067˚ 103.81283˚ 70 nm 170 nm 5° / 5° Siem Reap

Altitude Profile

Advertisement - Login to hide

Weather


0- 5 10 15 20 25 30 35+ Temperature / ° C

Clouds and Precipitation
Forecast for 2018-05-26 12:00 UTC. Updated 5 hours ago

Ground ~20,000 ft ~40,000 ft Winds

VDSV

Details ICAO VDSV (KOS)
Name SIHANUKVILLE
Region Cambodia
Timezone Asia/Phnom_Penh (UTC+7.0)
Stats Elevation 33 ft / 10 m (AMSL)
Location 10.579172° 103.636827°
Runways 1
Magnetic Variation 0.394° W

METAR

VDSV 261600Z VRB02KT 9999 FEW017 27/25 Q1011

Decode

TAF

TAF VDSV 261100Z 2612/2706 19006KT 9999 SCT017 TEMPO 2612/2617 TS SCT015 FEW017CB SCT040

Decode

Departure Runways

ID Width Length Bearing (true) Bearing (mag) Surface Threshold Offset Overrun Length
03 112 ft / 34 m 4,268 ft / 1,301 m 27.47° 27.86° Asphalt 0 ft / 0 m 0 ft / 0 m
21 112 ft / 34 m 4,268 ft / 1,301 m 207.47° 207.86° Asphalt 0 ft / 0 m 0 ft / 0 m

VDSR

Details ICAO VDSR (REP)
Name Siem Reap
Region Cambodia
Timezone Asia/Phnom_Penh (UTC+7.0)
Stats Elevation 60 ft / 18 m (AMSL)
Location 13.410667° 103.812832°
Runways 1
Magnetic Variation 0.624° W

METAR

VDSR 261600Z VRB02KT 8000 SHRA SCT015 BKN040 25/25 Q1011

Decode

TAF

TAF VDSR 261100Z 2612/2706 18005KT 9999 SCT017 TEMPO 2612/2617 5000 TSRA SCT015 FEW017CB

Decode

Destination Runways

ID Width Length Bearing (true) Bearing (mag) Surface Threshold Offset Overrun Length
05 148 ft / 45 m 8,384 ft / 2,555 m 47.81° 48.43° Concrete 450 ft / 137 m 0 ft / 0 m
23 148 ft / 45 m 8,384 ft / 2,555 m 227.82° 228.44° Concrete 450 ft / 137 m 0 ft / 0 m